Time;durP1;ratioP1;P1;durP2;ratioP2;P2;SDS_P1;SDS_P2;PMS_P1;PMS_P2;Temp;Humidity;BMP_temperature;BMP_pressure;BME280_temperature;BME280_humidity;BME280_pressure;Samples;Min_cycle;Max_cycle;Signal;HPM_P1;HPM_P2
2023/12/04 00:02:10;;;;;;;;;;;0.30;99.90;;;;;;5116489;27;20426;-81
2023/12/04 00:04:36;;;;;;;;;;;0.40;99.90;;;;;;5116437;27;19984;-80
2023/12/04 00:07:02;;;;;;;;;;;0.40;99.90;;;;;;5109144;27;19959;-81
2023/12/04 00:09:27;;;;;;;;;;;0.30;99.90;;;;;;5112206;27;19974;-81
2023/12/04 00:11:53;;;;;;;;;;;0.30;99.90;;;;;;5113069;27;19931;-80
2023/12/04 00:14:19;;;;;;;;;;;0.40;99.90;;;;;;5115210;27;19924;-81
2023/12/04 00:16:44;;;;;;;;;;;0.30;99.90;;;;;;5114792;27;19934;-81
2023/12/04 00:19:10;;;;;;;;;;;0.40;99.90;;;;;;5142050;27;20409;-80
2023/12/04 00:21:35;;;;;;;;;;;0.50;99.90;;;;;;5115258;28;19934;-81
2023/12/04 00:24:01;;;;;;;;;;;0.40;99.90;;;;;;5110232;28;19932;-81
2023/12/04 00:26:27;;;;;;;;;;;0.30;99.90;;;;;;5119369;27;20377;-81
2023/12/04 00:28:52;;;;;;;;;;;0.40;99.90;;;;;;5114134;28;19931;-81
2023/12/04 00:31:18;;;;;;;;;;;0.40;99.90;;;;;;5107629;28;19923;-80
2023/12/04 00:33:43;;;;;;;;;;;0.40;99.90;;;;;;5112470;27;20319;-81
2023/12/04 00:36:09;;;;;;;;;;;0.40;99.90;;;;;;5113201;27;19924;-81
2023/12/04 00:38:35;;;;;;;;;;;0.40;99.90;;;;;;5102875;28;19924;-81
2023/12/04 00:41:00;;;;;;;;;;;0.40;99.90;;;;;;5111953;28;19949;-82
2023/12/04 00:43:26;;;;;;;;;;;0.40;99.90;;;;;;5122089;28;19935;-80
2023/12/04 00:45:51;;;;;;;;;;;0.40;99.90;;;;;;5120514;28;20378;-80
2023/12/04 00:48:17;;;;;;;;;;;0.40;99.90;;;;;;5115499;27;19992;-81
2023/12/04 00:50:43;;;;;;;;;;;0.30;99.90;;;;;;5114683;27;19930;-81
2023/12/04 00:53:08;;;;;;;;;;;0.40;99.90;;;;;;5112526;27;20014;-82
2023/12/04 00:55:34;;;;;;;;;;;0.40;99.90;;;;;;5108240;27;19971;-82
2023/12/04 00:57:59;;;;;;;;;;;0.40;99.90;;;;;;5114359;27;20006;-81
2023/12/04 01:00:25;;;;;;;;;;;0.40;99.90;;;;;;5107692;27;19927;-85
2023/12/04 01:02:51;;;;;;;;;;;0.40;99.90;;;;;;5115768;27;20297;-81
2023/12/04 01:05:17;;;;;;;;;;;0.40;99.90;;;;;;5108451;27;19931;-82
2023/12/04 01:07:42;;;;;;;;;;;0.40;99.90;;;;;;5113675;27;19931;-84
2023/12/04 01:10:08;;;;;;;;;;;0.40;99.90;;;;;;5114023;27;19930;-81
2023/12/04 01:12:33;;;;;;;;;;;0.40;99.90;;;;;;5112324;27;19929;-82
2023/12/04 01:15:01;;;;;;;;;;;0.40;99.90;;;;;;5113240;27;19977;-81
2023/12/04 01:17:27;;;;;;;;;;;0.40;99.90;;;;;;5112077;27;20348;-80
2023/12/04 01:19:52;;;;;;;;;;;0.40;99.90;;;;;;5111956;27;19924;-81
2023/12/04 01:22:18;;;;;;;;;;;0.50;99.90;;;;;;5115166;27;19977;-81
2023/12/04 01:24:43;;;;;;;;;;;0.40;99.90;;;;;;5107871;27;20661;-80
2023/12/04 01:27:09;;;;;;;;;;;0.50;99.90;;;;;;5109164;27;19928;-81
2023/12/04 01:29:35;;;;;;;;;;;0.50;99.90;;;;;;5093893;28;19928;-84
2023/12/04 01:32:00;;;;;;;;;;;0.50;99.90;;;;;;5114721;27;19924;-85
2023/12/04 01:34:26;;;;;;;;;;;0.50;99.90;;;;;;5107324;27;19934;-80
2023/12/04 01:36:51;;;;;;;;;;;0.40;99.90;;;;;;5107861;27;19923;-81
2023/12/04 01:39:17;;;;;;;;;;;0.40;99.90;;;;;;5108352;27;19924;-85
2023/12/04 01:41:43;;;;;;;;;;;0.60;99.90;;;;;;5107776;27;19927;-81
2023/12/04 01:44:08;;;;;;;;;;;0.50;99.90;;;;;;5110060;27;20018;-80
2023/12/04 01:46:34;;;;;;;;;;;0.50;99.90;;;;;;5115039;27;20003;-81
2023/12/04 01:49:00;;;;;;;;;;;0.50;99.90;;;;;;5112159;27;19924;-80
2023/12/04 01:51:26;;;;;;;;;;;0.50;99.90;;;;;;5110990;27;19932;-81
2023/12/04 01:53:52;;;;;;;;;;;0.50;99.90;;;;;;5110892;27;19924;-81
2023/12/04 01:56:19;;;;;;;;;;;0.50;99.90;;;;;;5112194;27;19947;-81
2023/12/04 01:58:45;;;;;;;;;;;0.50;99.90;;;;;;5118176;27;19931;-81
2023/12/04 02:01:11;;;;;;;;;;;0.60;99.90;;;;;;5111025;27;19931;-83
2023/12/04 02:03:36;;;;;;;;;;;0.60;99.90;;;;;;5117938;27;20053;-81
2023/12/04 02:06:03;;;;;;;;;;;0.50;99.90;;;;;;5112015;27;20363;-81
2023/12/04 02:08:29;;;;;;;;;;;0.60;99.90;;;;;;5109137;27;19924;-81
2023/12/04 02:10:54;;;;;;;;;;;0.60;99.90;;;;;;5111200;28;19931;-80
2023/12/04 02:13:20;;;;;;;;;;;0.60;99.90;;;;;;5096145;28;20294;-81
2023/12/04 02:15:48;;;;;;;;;;;0.60;99.90;;;;;;5147111;27;20074;-81
2023/12/04 02:18:14;;;;;;;;;;;0.60;99.90;;;;;;5109793;28;20287;-80
2023/12/04 02:20:39;;;;;;;;;;;0.60;99.90;;;;;;5112272;28;19923;-79
2023/12/04 02:23:05;;;;;;;;;;;0.60;99.90;;;;;;5094264;28;19973;-80
2023/12/04 02:25:31;;;;;;;;;;;0.60;99.90;;;;;;5109321;28;19924;-81
2023/12/04 02:27:58;;;;;;;;;;;0.60;99.90;;;;;;5098132;28;20019;-80
2023/12/04 02:30:24;;;;;;;;;;;0.60;99.90;;;;;;5093150;28;19967;-80
2023/12/04 02:32:51;;;;;;;;;;;0.70;99.90;;;;;;5101751;28;19969;-81
2023/12/04 02:35:21;;;;;;;;;;;0.70;99.90;;;;;;5132152;27;19931;-80
2023/12/04 02:37:47;;;;;;;;;;;0.60;99.90;;;;;;5113271;28;19932;-80
2023/12/04 02:40:13;;;;;;;;;;;0.60;99.90;;;;;;5112683;28;20362;-81
2023/12/04 02:42:39;;;;;;;;;;;0.70;99.90;;;;;;5132514;27;19951;-82
2023/12/04 02:45:04;;;;;;;;;;;0.70;99.90;;;;;;5143322;27;20378;-80
2023/12/04 02:47:30;;;;;;;;;;;0.70;99.90;;;;;;5113347;27;19941;-80
2023/12/04 02:49:56;;;;;;;;;;;0.70;99.90;;;;;;5116704;27;19932;-84
2023/12/04 02:52:21;;;;;;;;;;;0.70;99.90;;;;;;5121101;27;19923;-82
2023/12/04 02:54:47;;;;;;;;;;;0.70;99.90;;;;;;5118463;27;19931;-80
2023/12/04 02:57:12;;;;;;;;;;;0.70;99.90;;;;;;5104517;27;19931;-81
2023/12/04 02:59:38;;;;;;;;;;;0.70;99.90;;;;;;5102309;28;20389;-80
2023/12/04 03:02:03;;;;;;;;;;;0.70;99.90;;;;;;5135608;27;20036;-80
2023/12/04 03:04:29;;;;;;;;;;;0.70;99.90;;;;;;5110709;27;19923;-81
2023/12/04 03:06:55;;;;;;;;;;;0.70;99.90;;;;;;5114269;27;19927;-81
2023/12/04 03:09:21;;;;;;;;;;;0.70;99.90;;;;;;5137745;27;19928;-81
2023/12/04 03:11:47;;;;;;;;;;;0.70;99.90;;;;;;5120418;27;19930;-81
2023/12/04 03:14:12;;;;;;;;;;;0.70;99.90;;;;;;5115591;27;19949;-81
2023/12/04 03:16:38;;;;;;;;;;;0.70;99.90;;;;;;5116340;27;19923;-80
2023/12/04 03:19:04;;;;;;;;;;;0.70;99.90;;;;;;5111918;27;19931;-81
2023/12/04 03:21:29;;;;;;;;;;;0.70;99.90;;;;;;5119709;27;20098;-80
2023/12/04 03:23:55;;;;;;;;;;;0.70;99.90;;;;;;5116269;27;19939;-84
2023/12/04 03:26:20;;;;;;;;;;;0.70;99.90;;;;;;5109406;27;19924;-81
2023/12/04 03:28:46;;;;;;;;;;;0.70;99.90;;;;;;5119122;27;20412;-80
2023/12/04 03:31:11;;;;;;;;;;;0.70;99.90;;;;;;5116108;27;19923;-80
2023/12/04 03:33:37;;;;;;;;;;;0.70;99.90;;;;;;5115208;27;19924;-80
2023/12/04 03:36:03;;;;;;;;;;;0.70;99.90;;;;;;5114450;28;19981;-80
2023/12/04 03:38:29;;;;;;;;;;;0.70;99.90;;;;;;5119220;27;20378;-80
2023/12/04 03:40:54;;;;;;;;;;;0.70;99.90;;;;;;5116352;28;19924;-84
2023/12/04 03:43:20;;;;;;;;;;;0.70;99.90;;;;;;5115838;27;20361;-81
2023/12/04 03:45:45;;;;;;;;;;;0.80;99.90;;;;;;5107513;28;19931;-81
2023/12/04 03:48:11;;;;;;;;;;;0.70;99.90;;;;;;5109301;28;19947;-80
2023/12/04 03:50:36;;;;;;;;;;;0.80;99.90;;;;;;5115381;28;19928;-80
2023/12/04 03:53:02;;;;;;;;;;;0.80;99.90;;;;;;5115342;28;19924;-80
2023/12/04 03:55:28;;;;;;;;;;;0.80;99.90;;;;;;5112788;27;20006;-80
2023/12/04 03:57:53;;;;;;;;;;;0.90;99.90;;;;;;5138114;27;19932;-84
2023/12/04 04:00:19;;;;;;;;;;;0.90;99.90;;;;;;5141177;27;20305;-79
2023/12/04 04:02:45;;;;;;;;;;;0.80;99.90;;;;;;5116751;27;19970;-80
2023/12/04 04:05:10;;;;;;;;;;;0.90;99.90;;;;;;5121983;27;19924;-79
2023/12/04 04:07:36;;;;;;;;;;;0.90;99.90;;;;;;5124891;27;19979;-80
2023/12/04 04:10:02;;;;;;;;;;;0.90;99.90;;;;;;5118491;27;19971;-81
2023/12/04 04:12:30;;;;;;;;;;;0.90;99.90;;;;;;5107919;27;20408;-80
2023/12/04 04:14:56;;;;;;;;;;;0.90;99.90;;;;;;5112180;27;19976;-80
2023/12/04 04:17:21;;;;;;;;;;;0.90;99.90;;;;;;5114291;27;19927;-80
2023/12/04 04:19:47;;;;;;;;;;;0.90;99.90;;;;;;5114856;27;19931;-81
2023/12/04 04:22:12;;;;;;;;;;;0.90;99.90;;;;;;5110008;27;19935;-80
2023/12/04 04:24:38;;;;;;;;;;;0.90;99.90;;;;;;5109225;28;20528;-82
2023/12/04 04:27:04;;;;;;;;;;;0.90;99.90;;;;;;5113665;28;19930;-81
2023/12/04 04:29:29;;;;;;;;;;;0.90;99.90;;;;;;5114653;28;19927;-80
2023/12/04 04:31:55;;;;;;;;;;;0.90;99.90;;;;;;5100244;28;20377;-80
2023/12/04 04:34:21;;;;;;;;;;;0.90;99.90;;;;;;5115230;28;19924;-80
2023/12/04 04:36:47;;;;;;;;;;;1.00;99.90;;;;;;5097426;28;19928;-80
2023/12/04 04:39:13;;;;;;;;;;;0.80;99.90;;;;;;5099467;28;19935;-80
2023/12/04 04:41:39;;;;;;;;;;;0.90;99.90;;;;;;5107842;28;19963;-82
2023/12/04 04:44:05;;;;;;;;;;;0.90;99.90;;;;;;5110980;28;19924;-81
2023/12/04 04:46:30;;;;;;;;;;;0.90;99.90;;;;;;5106413;28;19935;-79
2023/12/04 04:48:56;;;;;;;;;;;0.80;99.90;;;;;;5112170;28;19934;-80
2023/12/04 04:51:22;;;;;;;;;;;0.90;99.90;;;;;;5117354;28;19924;-81
2023/12/04 04:53:48;;;;;;;;;;;0.80;99.90;;;;;;5116031;27;19924;-80
2023/12/04 04:56:14;;;;;;;;;;;0.90;99.90;;;;;;5113519;27;19923;-81
2023/12/04 04:58:40;;;;;;;;;;;0.90;99.90;;;;;;5113083;27;19931;-81
2023/12/04 05:01:06;;;;;;;;;;;0.90;99.90;;;;;;5115898;27;19932;-84
2023/12/04 05:03:31;;;;;;;;;;;0.90;99.90;;;;;;5114564;27;19980;-82
2023/12/04 05:05:57;;;;;;;;;;;1.00;99.90;;;;;;5093157;27;19946;-81
2023/12/04 05:08:22;;;;;;;;;;;0.90;99.90;;;;;;5104577;27;19923;-81
2023/12/04 05:10:48;;;;;;;;;;;0.90;99.90;;;;;;5121376;27;19930;-80
2023/12/04 05:13:14;;;;;;;;;;;1.00;99.90;;;;;;5114627;27;19924;-81
2023/12/04 05:15:39;;;;;;;;;;;1.00;99.90;;;;;;5115555;27;19931;-80
2023/12/04 05:18:05;;;;;;;;;;;1.00;99.90;;;;;;5105738;28;19924;-80
2023/12/04 05:20:30;;;;;;;;;;;1.00;99.90;;;;;;5114409;28;19974;-80
2023/12/04 05:22:59;;;;;;;;;;;1.00;99.90;;;;;;5112437;27;20007;-83
2023/12/04 05:25:25;;;;;;;;;;;1.00;99.90;;;;;;5104955;27;19924;-81
2023/12/04 05:27:50;;;;;;;;;;;1.00;99.90;;;;;;5109139;28;19946;-80
2023/12/04 05:30:16;;;;;;;;;;;1.00;99.90;;;;;;5106090;27;19946;-80
2023/12/04 05:32:41;;;;;;;;;;;1.00;99.90;;;;;;5113559;27;19930;-80
2023/12/04 05:35:07;;;;;;;;;;;1.00;99.90;;;;;;5110206;28;19967;-81
2023/12/04 05:37:32;;;;;;;;;;;0.90;99.90;;;;;;5106830;27;19924;-81
2023/12/04 05:39:58;;;;;;;;;;;1.00;99.90;;;;;;5112527;27;19924;-81
2023/12/04 05:42:23;;;;;;;;;;;1.00;99.90;;;;;;5113964;27;19924;-81
2023/12/04 05:44:49;;;;;;;;;;;1.00;99.90;;;;;;5118806;27;19936;-84
2023/12/04 05:47:15;;;;;;;;;;;1.00;99.90;;;;;;5109674;27;20398;-81
2023/12/04 05:49:40;;;;;;;;;;;1.00;99.90;;;;;;5119493;27;20022;-81
2023/12/04 05:52:06;;;;;;;;;;;1.00;99.90;;;;;;5133080;27;19989;-81
2023/12/04 05:54:31;;;;;;;;;;;1.00;99.90;;;;;;5113339;27;19931;-82
2023/12/04 05:56:58;;;;;;;;;;;1.10;99.90;;;;;;5111318;27;19928;-82
2023/12/04 05:59:23;;;;;;;;;;;1.00;99.90;;;;;;5107343;27;20473;-81
2023/12/04 06:01:49;;;;;;;;;;;1.00;99.90;;;;;;5107794;27;19924;-81
2023/12/04 06:04:14;;;;;;;;;;;1.10;99.90;;;;;;5115646;27;19927;-82
2023/12/04 06:06:40;;;;;;;;;;;1.00;99.90;;;;;;5114944;27;20022;-81
2023/12/04 06:09:06;;;;;;;;;;;1.00;99.90;;;;;;5110963;28;19928;-81
2023/12/04 06:11:31;;;;;;;;;;;1.00;99.90;;;;;;5089489;28;19931;-81
2023/12/04 06:13:58;;;;;;;;;;;1.00;99.90;;;;;;5113019;28;19982;-80
2023/12/04 06:16:23;;;;;;;;;;;0.90;99.90;;;;;;5112515;28;19980;-80
2023/12/04 06:18:49;;;;;;;;;;;1.00;99.90;;;;;;5113105;28;19927;-82
2023/12/04 06:21:14;;;;;;;;;;;1.00;99.90;;;;;;5109521;28;19924;-81
2023/12/04 06:23:40;;;;;;;;;;;1.00;99.90;;;;;;5097658;28;19977;-82
2023/12/04 06:26:06;;;;;;;;;;;1.00;99.90;;;;;;5112516;28;19923;-80
2023/12/04 06:28:32;;;;;;;;;;;1.00;99.90;;;;;;5113513;28;20034;-81
2023/12/04 06:30:58;;;;;;;;;;;1.00;99.90;;;;;;5113558;28;19947;-81
2023/12/04 06:33:24;;;;;;;;;;;1.00;99.90;;;;;;5109960;28;20585;-80
2023/12/04 06:35:49;;;;;;;;;;;1.10;99.90;;;;;;5100912;28;19928;-82
2023/12/04 06:38:16;;;;;;;;;;;1.00;99.90;;;;;;5098782;28;20278;-81
2023/12/04 06:40:41;;;;;;;;;;;1.00;99.90;;;;;;5110263;28;19928;-82
2023/12/04 06:43:07;;;;;;;;;;;1.00;99.90;;;;;;5107423;28;19947;-80
2023/12/04 06:45:33;;;;;;;;;;;1.10;99.90;;;;;;5115280;28;19924;-81
2023/12/04 06:47:59;;;;;;;;;;;1.10;99.90;;;;;;5110506;28;19924;-81
2023/12/04 06:50:25;;;;;;;;;;;1.10;99.90;;;;;;5112673;28;19969;-84
2023/12/04 06:52:51;;;;;;;;;;;1.10;99.90;;;;;;5115662;28;19924;-80
2023/12/04 06:55:16;;;;;;;;;;;1.10;99.90;;;;;;5111529;28;20385;-80
2023/12/04 06:57:42;;;;;;;;;;;1.20;99.90;;;;;;5111893;27;19932;-80
2023/12/04 07:00:08;;;;;;;;;;;1.30;99.90;;;;;;5116625;27;19923;-82
2023/12/04 07:02:33;;;;;;;;;;;1.20;99.90;;;;;;5115361;28;19938;-81
2023/12/04 07:04:59;;;;;;;;;;;1.20;99.90;;;;;;5118568;28;19997;-81
2023/12/04 07:07:25;;;;;;;;;;;1.20;99.90;;;;;;5114454;28;20014;-84
2023/12/04 07:09:50;;;;;;;;;;;1.30;99.90;;;;;;5112460;28;20010;-80
2023/12/04 07:12:16;;;;;;;;;;;1.30;99.90;;;;;;5113405;28;20471;-85
2023/12/04 07:14:41;;;;;;;;;;;1.30;99.90;;;;;;5110573;28;19928;-81
2023/12/04 07:17:07;;;;;;;;;;;1.30;99.90;;;;;;5115147;28;19923;-80
2023/12/04 07:19:33;;;;;;;;;;;1.20;99.90;;;;;;5117235;27;19971;-82
2023/12/04 07:21:58;;;;;;;;;;;1.30;99.90;;;;;;5107055;28;20378;-82
2023/12/04 07:24:24;;;;;;;;;;;1.30;99.90;;;;;;5107803;28;19924;-82
2023/12/04 07:26:50;;;;;;;;;;;1.30;99.90;;;;;;5110965;27;20019;-81
2023/12/04 07:29:16;;;;;;;;;;;1.30;99.90;;;;;;5121598;27;19968;-81
2023/12/04 07:31:41;;;;;;;;;;;1.40;99.90;;;;;;5121658;27;20348;-80
2023/12/04 07:34:07;;;;;;;;;;;1.40;99.90;;;;;;5120332;27;19959;-81
2023/12/04 07:36:33;;;;;;;;;;;1.40;99.90;;;;;;5115645;27;20010;-82
2023/12/04 07:38:58;;;;;;;;;;;1.40;99.90;;;;;;5115864;28;19931;-81
2023/12/04 07:41:24;;;;;;;;;;;1.40;99.90;;;;;;5116189;28;19924;-81
2023/12/04 07:43:49;;;;;;;;;;;1.40;99.90;;;;;;5115622;28;20358;-81
2023/12/04 07:46:15;;;;;;;;;;;1.40;99.90;;;;;;5108285;28;19924;-81
2023/12/04 07:48:42;;;;;;;;;;;1.40;99.90;;;;;;5107697;28;19924;-81
2023/12/04 07:51:08;;;;;;;;;;;1.50;99.90;;;;;;5115555;28;19928;-82
2023/12/04 07:53:34;;;;;;;;;;;1.40;99.90;;;;;;5115661;28;19951;-82
2023/12/04 07:56:03;;;;;;;;;;;1.40;99.90;;;;;;5111461;28;20362;-84
2023/12/04 07:58:30;;;;;;;;;;;1.50;99.90;;;;;;5115479;27;20015;-83
2023/12/04 08:00:56;;;;;;;;;;;1.50;99.90;;;;;;5111625;27;20381;-81
2023/12/04 08:03:21;;;;;;;;;;;1.50;99.90;;;;;;5110600;27;21568;-82
2023/12/04 08:05:47;;;;;;;;;;;1.50;99.90;;;;;;5117206;27;19952;-81
2023/12/04 08:08:13;;;;;;;;;;;1.40;99.90;;;;;;5110175;27;19980;-82
2023/12/04 08:10:39;;;;;;;;;;;1.40;99.90;;;;;;5115045;27;19943;-82
2023/12/04 08:13:05;;;;;;;;;;;1.50;99.90;;;;;;5107848;27;19978;-82
2023/12/04 08:15:30;;;;;;;;;;;1.50;99.90;;;;;;5114335;27;19928;-81
2023/12/04 08:17:57;;;;;;;;;;;1.50;99.90;;;;;;5111963;27;19924;-82
2023/12/04 08:20:23;;;;;;;;;;;1.50;99.90;;;;;;5112696;28;19928;-83
2023/12/04 08:22:49;;;;;;;;;;;1.50;99.90;;;;;;5113871;28;20287;-82
2023/12/04 08:25:14;;;;;;;;;;;1.50;99.90;;;;;;5114422;27;20564;-83
2023/12/04 08:27:40;;;;;;;;;;;1.50;99.90;;;;;;5115221;27;19942;-81
2023/12/04 08:30:06;;;;;;;;;;;1.50;99.90;;;;;;5112606;27;19947;-82
2023/12/04 08:32:31;;;;;;;;;;;1.50;99.90;;;;;;5113400;27;19924;-83
2023/12/04 08:34:57;;;;;;;;;;;1.40;99.90;;;;;;5117213;27;20024;-81
2023/12/04 08:37:23;;;;;;;;;;;1.50;99.90;;;;;;5112529;27;19932;-82
2023/12/04 08:39:48;;;;;;;;;;;1.50;99.90;;;;;;5114452;27;19923;-81
2023/12/04 08:42:14;;;;;;;;;;;1.50;99.90;;;;;;5112904;27;19931;-82
2023/12/04 08:44:40;;;;;;;;;;;1.50;99.90;;;;;;5111259;27;19932;-82
2023/12/04 08:47:05;;;;;;;;;;;1.50;99.90;;;;;;5103216;27;20381;-81
2023/12/04 08:49:32;;;;;;;;;;;1.60;99.90;;;;;;5116406;27;19946;-81
2023/12/04 08:51:57;;;;;;;;;;;1.60;99.90;;;;;;5115544;27;19923;-81
2023/12/04 08:54:23;;;;;;;;;;;1.60;99.90;;;;;;5118178;27;20450;-81
2023/12/04 08:56:49;;;;;;;;;;;1.70;99.90;;;;;;5124684;27;19924;-81
2023/12/04 08:59:14;;;;;;;;;;;1.60;99.90;;;;;;5119233;27;19927;-80
2023/12/04 09:01:40;;;;;;;;;;;1.60;99.90;;;;;;5114747;27;19923;-82
2023/12/04 09:04:07;;;;;;;;;;;1.70;99.90;;;;;;5123037;27;19923;-84
2023/12/04 09:06:32;;;;;;;;;;;1.70;99.90;;;;;;5158380;27;20329;-82
2023/12/04 09:08:58;;;;;;;;;;;1.70;99.90;;;;;;5114420;27;19924;-78
2023/12/04 09:11:23;;;;;;;;;;;1.70;99.90;;;;;;5114789;27;19966;-80
2023/12/04 09:13:49;;;;;;;;;;;1.80;99.90;;;;;;5115941;27;19964;-80
2023/12/04 09:16:15;;;;;;;;;;;1.80;99.90;;;;;;5129360;27;19979;-80
2023/12/04 09:18:40;;;;;;;;;;;1.80;99.90;;;;;;5115784;27;19927;-80
2023/12/04 09:21:06;;;;;;;;;;;1.80;99.90;;;;;;5122765;27;19928;-80
2023/12/04 09:23:31;;;;;;;;;;;1.90;99.90;;;;;;5121063;27;19968;-81
2023/12/04 09:25:57;;;;;;;;;;;2.00;99.90;;;;;;5121306;27;19932;-80
2023/12/04 09:28:23;;;;;;;;;;;1.90;99.90;;;;;;5115848;27;20399;-80
2023/12/04 09:30:48;;;;;;;;;;;1.90;99.90;;;;;;5121494;27;20041;-79
2023/12/04 09:33:14;;;;;;;;;;;2.00;99.90;;;;;;5115254;27;19924;-80
2023/12/04 09:35:39;;;;;;;;;;;2.00;99.90;;;;;;5114732;27;19924;-80
2023/12/04 09:38:05;;;;;;;;;;;2.10;99.90;;;;;;5112716;27;19930;-80
2023/12/04 09:40:31;;;;;;;;;;;2.10;99.90;;;;;;5095386;27;20370;-80
2023/12/04 09:42:57;;;;;;;;;;;2.10;99.90;;;;;;5114435;27;19927;-80
2023/12/04 09:45:23;;;;;;;;;;;2.20;99.90;;;;;;5119067;27;19932;-80
2023/12/04 09:47:49;;;;;;;;;;;2.20;99.90;;;;;;5112490;27;19973;-80
2023/12/04 09:50:16;;;;;;;;;;;2.20;99.90;;;;;;5129083;27;19924;-80
2023/12/04 09:52:42;;;;;;;;;;;2.30;99.90;;;;;;5102464;28;19938;-80
2023/12/04 09:55:08;;;;;;;;;;;2.20;99.90;;;;;;5113361;28;19928;-80
2023/12/04 09:57:34;;;;;;;;;;;2.30;99.90;;;;;;5121359;27;20384;-80
2023/12/04 10:00:00;;;;;;;;;;;2.30;99.90;;;;;;5102022;27;20031;-81
2023/12/04 10:02:26;;;;;;;;;;;2.30;99.90;;;;;;5120632;27;20003;-80
2023/12/04 10:04:51;;;;;;;;;;;2.40;99.90;;;;;;5114426;27;20003;-85
2023/12/04 10:07:17;;;;;;;;;;;2.40;99.90;;;;;;5125369;27;19928;-81
2023/12/04 10:09:43;;;;;;;;;;;2.40;99.90;;;;;;5111465;28;19927;-80
2023/12/04 10:12:09;;;;;;;;;;;2.40;99.90;;;;;;5114907;27;19924;-81
2023/12/04 10:14:34;;;;;;;;;;;2.40;99.90;;;;;;5120129;27;20006;-81
2023/12/04 10:17:13;;;;;;;;;;;2.50;99.90;;;;;;5118571;28;19924;-81
2023/12/04 10:19:38;;;;;;;;;;;2.50;99.90;;;;;;5116964;28;19935;-82
2023/12/04 10:22:10;;;;;;;;;;;2.50;99.90;;;;;;5113884;28;19927;-82
2023/12/04 10:24:36;;;;;;;;;;;2.50;99.90;;;;;;5114026;28;19927;-81
2023/12/04 10:27:04;;;;;;;;;;;2.50;99.90;;;;;;5115098;28;19931;-81
2023/12/04 10:29:41;;;;;;;;;;;2.50;99.90;;;;;;5128045;28;19978;-81
2023/12/04 10:32:07;;;;;;;;;;;2.60;99.90;;;;;;5122967;28;20017;-81
2023/12/04 10:34:33;;;;;;;;;;;2.60;99.90;;;;;;5117711;28;20067;-85
2023/12/04 10:36:59;;;;;;;;;;;2.50;99.90;;;;;;5118539;28;19934;-83
2023/12/04 10:39:28;;;;;;;;;;;2.60;99.90;;;;;;5102766;28;19928;-87
2023/12/04 10:42:02;;;;;;;;;;;2.50;99.90;;;;;;5114276;28;19930;-80
2023/12/04 10:44:28;;;;;;;;;;;2.60;99.90;;;;;;5112975;28;19927;-86
2023/12/04 10:46:57;;;;;;;;;;;2.60;99.90;;;;;;5109542;28;20018;-82
2023/12/04 10:49:25;;;;;;;;;;;2.50;99.90;;;;;;5114025;28;20011;-84
2023/12/04 10:51:52;;;;;;;;;;;2.60;99.90;;;;;;5109841;28;19927;-82
2023/12/04 10:54:17;;;;;;;;;;;2.60;99.90;;;;;;5115910;28;20394;-82
2023/12/04 10:56:44;;;;;;;;;;;2.50;99.90;;;;;;5113236;28;19930;-81
2023/12/04 10:59:12;;;;;;;;;;;2.60;99.90;;;;;;5117878;28;19930;-84
2023/12/04 11:01:38;;;;;;;;;;;2.70;99.90;;;;;;5110529;28;19931;-81
2023/12/04 11:04:07;;;;;;;;;;;2.60;99.90;;;;;;5117766;27;20374;-81
2023/12/04 11:06:34;;;;;;;;;;;2.60;99.90;;;;;;5117153;27;19923;-88
2023/12/04 11:09:01;;;;;;;;;;;2.60;99.90;;;;;;5116183;28;19927;-83
2023/12/04 11:11:30;;;;;;;;;;;2.50;99.90;;;;;;5115779;27;19965;-81
2023/12/04 11:13:58;;;;;;;;;;;2.60;99.90;;;;;;5124378;27;20469;-82
2023/12/04 11:16:33;;;;;;;;;;;2.60;99.90;;;;;;5115688;27;19924;-84
2023/12/04 11:19:12;;;;;;;;;;;2.50;99.90;;;;;;5118472;27;19924;-82
2023/12/04 11:21:38;;;;;;;;;;;2.50;99.90;;;;;;5102887;27;19927;-87
2023/12/04 11:24:05;;;;;;;;;;;2.70;99.90;;;;;;5097966;27;19924;-84
2023/12/04 11:26:35;;;;;;;;;;;2.60;99.90;;;;;;5123521;27;19930;-83
2023/12/04 11:29:01;;;;;;;;;;;2.60;99.90;;;;;;5127969;27;19927;-81
2023/12/04 11:31:27;;;;;;;;;;;2.60;99.90;;;;;;5128656;27;19950;-81
2023/12/04 11:33:52;;;;;;;;;;;2.70;99.90;;;;;;5122557;27;19935;-83
2023/12/04 11:36:18;;;;;;;;;;;2.70;99.90;;;;;;5117913;27;20306;-85
2023/12/04 11:38:48;;;;;;;;;;;2.70;99.90;;;;;;5104114;27;19949;-82
2023/12/04 11:41:17;;;;;;;;;;;2.70;99.90;;;;;;5121297;27;20022;-81
2023/12/04 11:43:43;;;;;;;;;;;2.70;99.90;;;;;;5117691;27;20006;-84
2023/12/04 11:46:09;;;;;;;;;;;2.70;99.90;;;;;;5116670;27;19982;-81
2023/12/04 11:48:38;;;;;;;;;;;2.70;99.90;;;;;;5124980;27;19931;-81
2023/12/04 11:51:06;;;;;;;;;;;2.70;99.90;;;;;;5104889;28;19931;-84
2023/12/04 11:53:32;;;;;;;;;;;2.70;99.90;;;;;;5123599;27;19967;-82
2023/12/04 11:55:58;;;;;;;;;;;2.70;99.90;;;;;;5131067;27;19969;-81
2023/12/04 11:58:23;;;;;;;;;;;2.70;99.90;;;;;;5121622;27;20398;-84
2023/12/04 12:00:49;;;;;;;;;;;2.70;99.90;;;;;;5113173;27;20021;-81
2023/12/04 12:03:15;;;;;;;;;;;2.70;99.90;;;;;;5126390;27;19923;-82
2023/12/04 12:05:41;;;;;;;;;;;2.70;99.90;;;;;;5117410;27;19924;-82
2023/12/04 12:08:07;;;;;;;;;;;2.70;99.90;;;;;;5114962;28;19928;-83
2023/12/04 12:10:33;;;;;;;;;;;2.70;99.90;;;;;;5124504;27;19931;-82
2023/12/04 12:12:59;;;;;;;;;;;2.70;99.90;;;;;;5125442;27;19923;-82
2023/12/04 12:15:25;;;;;;;;;;;2.80;99.90;;;;;;5113343;27;19927;-83
2023/12/04 12:17:54;;;;;;;;;;;2.80;99.90;;;;;;5114255;28;20298;-84
2023/12/04 12:20:22;;;;;;;;;;;2.80;99.90;;;;;;5114209;28;19938;-83
2023/12/04 12:22:48;;;;;;;;;;;2.80;99.90;;;;;;5113865;28;19924;-82
2023/12/04 12:25:14;;;;;;;;;;;2.80;99.90;;;;;;5113346;28;19924;-81
2023/12/04 12:27:40;;;;;;;;;;;2.80;99.90;;;;;;5114626;28;20455;-82
2023/12/04 12:30:06;;;;;;;;;;;2.80;99.90;;;;;;5113625;28;19967;-81
2023/12/04 12:32:32;;;;;;;;;;;2.80;99.90;;;;;;5113919;28;19997;-83
2023/12/04 12:34:57;;;;;;;;;;;2.80;99.90;;;;;;5114650;28;19932;-82
2023/12/04 12:37:23;;;;;;;;;;;2.90;99.90;;;;;;5114482;28;19928;-82
2023/12/04 12:39:50;;;;;;;;;;;2.80;99.90;;;;;;5114352;28;19924;-82
2023/12/04 12:42:26;;;;;;;;;;;2.90;99.90;;;;;;5114504;28;19930;-82
2023/12/04 12:44:52;;;;;;;;;;;2.80;99.90;;;;;;5113781;28;20417;-81
2023/12/04 12:47:18;;;;;;;;;;;2.80;99.90;;;;;;5099809;28;20294;-82
2023/12/04 12:49:44;;;;;;;;;;;2.80;99.90;;;;;;5147923;27;19931;-82
2023/12/04 12:52:10;;;;;;;;;;;2.80;99.90;;;;;;5114502;28;19986;-81
2023/12/04 12:54:45;;;;;;;;;;;2.80;99.90;;;;;;5113247;28;20018;-82
2023/12/04 12:57:11;;;;;;;;;;;2.80;99.90;;;;;;5114400;28;19924;-82
2023/12/04 12:59:39;;;;;;;;;;;2.80;99.90;;;;;;5114223;28;19932;-82
2023/12/04 13:02:06;;;;;;;;;;;2.80;99.90;;;;;;5112650;28;20014;-82
2023/12/04 13:04:35;;;;;;;;;;;2.80;99.90;;;;;;5112774;28;19924;-82
2023/12/04 13:07:02;;;;;;;;;;;2.80;99.90;;;;;;5113800;28;19946;-81
2023/12/04 13:09:28;;;;;;;;;;;2.80;99.90;;;;;;5113766;28;19934;-82
2023/12/04 13:11:53;;;;;;;;;;;2.80;99.90;;;;;;5113946;28;19924;-82
2023/12/04 13:14:19;;;;;;;;;;;2.80;99.90;;;;;;5114000;28;19985;-83
2023/12/04 13:16:45;;;;;;;;;;;2.90;99.90;;;;;;5111168;28;19939;-85
2023/12/04 13:19:10;;;;;;;;;;;2.80;99.90;;;;;;5117436;27;19923;-82
2023/12/04 13:21:36;;;;;;;;;;;2.80;99.90;;;;;;5112982;28;19923;-82
2023/12/04 13:24:03;;;;;;;;;;;2.80;99.90;;;;;;5113597;28;19992;-80
2023/12/04 13:26:29;;;;;;;;;;;2.70;99.90;;;;;;5111031;28;19924;-82
2023/12/04 13:28:55;;;;;;;;;;;2.70;99.90;;;;;;5114069;28;19931;-82
2023/12/04 13:31:20;;;;;;;;;;;2.70;99.90;;;;;;5112887;28;19977;-82
2023/12/04 13:33:47;;;;;;;;;;;2.70;99.90;;;;;;5101170;28;19923;-82
2023/12/04 13:36:12;;;;;;;;;;;2.70;99.90;;;;;;5113693;28;19923;-82
2023/12/04 13:38:38;;;;;;;;;;;2.70;99.90;;;;;;5112809;28;19930;-81
2023/12/04 13:43:49;;;;;;;;;;;2.70;99.90;;;;;;5112456;28;19945;-83
2023/12/04 13:44:04;;;;;;;;;;;2.60;99.90;;;;;;5102034;28;19924;-82
2023/12/04 13:46:30;;;;;;;;;;;2.50;99.90;;;;;;5112302;28;19931;-82
2023/12/04 13:48:56;;;;;;;;;;;2.50;99.90;;;;;;5102783;27;20036;-82
2023/12/04 13:51:22;;;;;;;;;;;2.50;99.90;;;;;;5105096;28;19931;-83
2023/12/04 13:53:50;;;;;;;;;;;2.50;99.90;;;;;;5112708;28;19928;-82
2023/12/04 13:58:52;;;;;;;;;;;2.50;99.90;;;;;;5112269;27;19927;-81
2023/12/04 14:01:22;;;;;;;;;;;2.50;99.90;;;;;;5111305;28;19939;-81
2023/12/04 14:03:48;;;;;;;;;;;2.50;99.90;;;;;;5093772;28;19928;-81
2023/12/04 14:06:15;;;;;;;;;;;2.40;99.90;;;;;;5113095;28;19931;-82
2023/12/04 14:08:41;;;;;;;;;;;2.40;99.90;;;;;;5110369;28;20007;-82
2023/12/04 14:11:07;;;;;;;;;;;2.40;99.90;;;;;;5113079;28;20010;-82
2023/12/04 14:13:32;;;;;;;;;;;2.30;99.90;;;;;;5112092;28;19970;-81
2023/12/04 14:15:58;;;;;;;;;;;2.40;99.90;;;;;;5113053;28;19923;-82
2023/12/04 14:18:23;;;;;;;;;;;2.30;99.90;;;;;;5112920;28;19935;-81
2023/12/04 14:20:49;;;;;;;;;;;2.30;99.90;;;;;;5115899;28;19967;-81
2023/12/04 14:23:16;;;;;;;;;;;2.30;99.90;;;;;;5116523;28;19934;-82
2023/12/04 14:25:41;;;;;;;;;;;2.30;99.90;;;;;;5113646;28;19931;-81
2023/12/04 14:28:07;;;;;;;;;;;2.30;99.90;;;;;;5112526;28;19928;-82